This is the latest recevied weather packets stored in our database for station/object WA7CUG. If no packets are shown the sender has not sent any weather packets the latest 10 day(s).
| Time | Temp. | Humidity | Pressure | Rain* | Wind** | Luminosity | Snow |
|---|---|---|---|---|---|---|---|
| 1778159099 | 12.78° C | 58% | 1014.7 hPa | 0 mm | - | 21 W/m² | - |
| 1778158797 | 12.22° C | 60% | 1014.7 hPa | 0 mm | - | 18 W/m² | - |
| 1778158495 | 12.22° C | 60% | 1014.5 hPa | 0 mm | - | 15 W/m² | - |
| 1778158192 | 11.67° C | 64% | 1014.7 hPa | 0 mm | - | 12 W/m² | - |
| 1778157889 | 10.56° C | 65% | 1014.7 hPa | 0 mm | - | 9 W/m² | - |
| 1778157587 | 10.56° C | 69% | 1014.5 hPa | 0 mm | - | 6 W/m² | - |
| 1778157284 | 11.67° C | 62% | 1014.8 hPa | 0 mm | - | 4 W/m² | - |
| 1778156980 | 11.11° C | 61% | 1014.6 hPa | 0 mm | - | 2 W/m² | - |
| 1778156676 | 11.67° C | 62% | 1014.2 hPa | 0 mm | - | 1 W/m² | - |
| 1778156372 | 13.33° C | 58% | 1014.4 hPa | 0 mm | - | 1 W/m² | - |
| 1778156067 | 12.78° C | 57% | 1014.7 hPa | 0 mm | - | 0 W/m² | - |
| 1778155764 | 11.11° C | 64% | 1014.3 hPa | 0 mm | - | 0 W/m² | - |
| 1778155461 | 11.11° C | 66% | 1014.4 hPa | 0 mm | - | 0 W/m² | - |
| 1778155157 | 12.22° C | 60% | 1014.4 hPa | 0 mm | - | 0 W/m² | - |
| 1778154853 | 12.22° C | 64% | 1014.3 hPa | 0 mm | - | 0 W/m² | - |
| 1778154549 | 12.78° C | 56% | 1014.6 hPa | 0 mm | - | 0 W/m² | - |
| 1778154246 | 11.67° C | 61% | 1014.4 hPa | 0 mm | - | 0 W/m² | - |
| 1778153943 | 13.33° C | 60% | 1014.1 hPa | 0 mm | - | 0 W/m² | - |
| 1778153640 | 13.33° C | 57% | 1014.1 hPa | 0 mm | - | 0 W/m² | - |
| 1778153337 | 12.22° C | 59% | 1014.4 hPa | 0 mm | - | 0 W/m² | - |
| 1778153035 | 12.22° C | 64% | 1014.2 hPa | 0 mm | - | 0 W/m² | - |
| 1778152732 | 12.78° C | 62% | 1014.2 hPa | 0 mm | - | 0 W/m² | - |
| 1778152429 | 13.89° C | 60% | 1014 hPa | 0 mm | - | 0 W/m² | - |
| 1778152125 | 13.33° C | 59% | 1014.1 hPa | 0 mm | - | 0 W/m² | - |
| 1778151821 | 12.78° C | 56% | 1013.7 hPa | 0 mm | - | 0 W/m² | - |
* Rain latest hour (hover to see other rain measurements)
** Current wind speed in m/s (hover to see current wind gust speed)